createdAt,value
2023-05-09T08:23:49.267Z,100783.78
2023-05-09T08:28:46.862Z,100691.38
2023-05-09T08:33:41.703Z,100770.63
2023-05-09T08:38:36.386Z,100758.78
2023-05-09T08:43:30.097Z,100683.50
2023-05-09T08:48:24.082Z,100703.16
2023-05-09T08:53:16.880Z,100702.22
2023-05-09T08:58:12.287Z,100665.94
2023-05-09T09:03:08.559Z,100729.19
2023-05-09T09:08:01.409Z,100731.97
2023-05-09T09:12:54.737Z,100714.59
2023-05-09T09:17:52.016Z,100524.09
2023-05-09T09:22:48.041Z,100612.41
2023-05-09T09:27:41.913Z,100702.38
2023-05-09T09:32:34.651Z,100698.00
2023-05-09T09:37:26.615Z,100638.31
2023-05-09T09:42:19.362Z,100614.78
2023-05-09T09:47:11.799Z,100661.94
2023-05-09T09:52:04.453Z,100667.31
2023-05-09T09:56:56.650Z,100644.78
2023-05-09T10:01:58.624Z,100671.59
2023-05-09T10:06:54.247Z,100668.97
2023-05-09T10:11:49.403Z,100634.75
2023-05-09T10:16:44.306Z,100648.09
2023-05-09T10:21:38.133Z,100597.91
2023-05-09T10:26:34.001Z,100636.66
2023-05-09T10:31:35.304Z,100628.03
2023-05-09T10:36:29.291Z,100619.41
2023-05-09T10:41:22.881Z,100604.22
2023-05-09T10:46:16.752Z,100529.63
2023-05-09T10:51:10.608Z,100560.94
2023-05-09T10:56:03.967Z,100585.66
2023-05-09T11:00:58.500Z,100568.28
2023-05-09T11:05:54.247Z,100537.19
2023-05-09T11:10:47.312Z,100538.53
2023-05-09T11:16:02.322Z,100544.22
2023-05-09T11:20:54.702Z,100530.94
2023-05-09T11:25:49.329Z,100506.50
2023-05-09T11:30:44.892Z,100517.22
2023-05-09T11:35:39.261Z,100489.56
2023-05-09T11:40:34.334Z,100407.03
2023-05-09T11:45:31.195Z,100474.25
2023-05-09T11:50:24.423Z,100483.94
2023-05-09T11:55:19.526Z,100459.91
2023-05-09T12:00:12.250Z,100464.63
2023-05-09T12:05:11.501Z,100461.63
2023-05-09T12:10:06.934Z,100445.00
2023-05-09T12:15:05.138Z,100462.03
2023-05-09T12:19:59.999Z,100367.88
2023-05-09T12:24:52.941Z,100412.25
2023-05-09T12:29:47.627Z,100405.72
2023-05-09T12:34:40.119Z,100431.88
2023-05-09T12:39:31.846Z,100426.25
2023-05-09T12:44:28.225Z,100413.03
2023-05-09T12:49:21.952Z,100402.03
2023-05-09T12:54:19.935Z,100370.13
2023-05-09T12:59:14.852Z,100402.31
2023-05-09T13:04:10.542Z,100361.94
2023-05-09T13:09:06.641Z,100390.06
2023-05-09T13:13:59.287Z,100332.59
2023-05-09T13:18:52.950Z,100369.28
2023-05-09T13:23:46.919Z,100340.50
2023-05-09T13:28:38.619Z,100342.53
2023-05-09T13:33:30.737Z,100363.75
2023-05-09T13:38:23.305Z,100357.91
2023-05-09T13:43:15.766Z,100339.88
2023-05-09T13:48:07.713Z,100334.50
2023-05-09T13:53:02.289Z,100328.19
2023-05-09T13:57:54.254Z,100279.34
2023-05-09T14:02:47.374Z,100276.50
2023-05-09T14:07:39.326Z,100325.81
2023-05-09T14:12:31.253Z,100253.47
2023-05-09T14:17:23.214Z,100300.75
2023-05-09T14:22:18.916Z,100375.06
2023-05-09T14:27:10.756Z,100371.13
2023-05-09T14:32:03.213Z,100348.19
2023-05-09T14:36:54.963Z,100351.69
2023-05-09T14:41:50.087Z,100319.22
2023-05-09T14:46:41.930Z,100278.63
2023-05-09T14:51:34.327Z,100350.84
2023-05-09T14:56:26.866Z,100318.41
2023-05-09T15:01:19.755Z,100344.75
2023-05-09T15:06:13.515Z,100328.78
2023-05-09T15:11:08.580Z,100322.84
2023-05-09T15:16:02.585Z,100242.06
2023-05-09T15:20:55.646Z,100288.97
2023-05-09T15:27:03.535Z,100311.94
2023-05-09T15:32:40.899Z,100235.38
2023-05-09T15:50:05.186Z,100214.31
2023-05-09T15:54:57.374Z,100218.91
2023-05-09T15:59:50.830Z,100244.25
2023-05-09T16:04:44.902Z,100293.03
2023-05-09T16:09:37.601Z,100287.00
2023-05-09T16:14:29.635Z,100246.25
2023-05-09T16:19:25.339Z,100291.94
2023-05-09T16:24:19.442Z,100295.78
2023-05-09T16:29:12.910Z,100109.06
2023-05-09T16:34:04.798Z,100207.91
2023-05-09T16:38:56.660Z,100288.03
2023-05-09T16:43:48.902Z,100277.38
2023-05-09T16:48:43.280Z,100248.63
2023-05-09T16:53:37.017Z,100216.38
2023-05-09T16:58:28.868Z,100274.13
2023-05-09T17:03:20.764Z,100178.38
2023-05-09T17:08:13.287Z,100214.34
2023-05-09T17:13:08.929Z,100183.88
2023-05-09T17:18:02.182Z,100275.97
2023-05-09T17:22:54.351Z,100278.66
2023-05-09T17:27:46.119Z,100274.38
2023-05-09T17:32:37.983Z,100263.00
2023-05-09T17:37:29.814Z,100159.28
2023-05-09T17:42:22.439Z,100239.91
2023-05-09T17:47:15.589Z,100243.88
2023-05-09T17:52:08.356Z,100230.38
2023-05-09T17:57:06.154Z,100231.44
2023-05-09T18:01:59.168Z,100235.44
2023-05-09T18:06:55.318Z,100243.38
2023-05-09T18:11:47.754Z,100242.31
2023-05-09T18:16:41.316Z,100085.03
2023-05-09T18:21:33.320Z,100239.66
2023-05-09T18:26:25.606Z,100212.31
2023-05-09T18:31:18.250Z,100097.63
2023-05-09T18:36:12.115Z,100143.25
2023-05-09T18:41:06.426Z,100221.84
2023-05-09T18:45:59.770Z,100131.97
2023-05-09T18:50:53.447Z,100232.84
2023-05-09T18:55:46.413Z,100222.38
2023-05-09T19:00:39.795Z,100240.41
2023-05-09T19:05:32.736Z,100241.47
2023-05-09T19:10:25.035Z,100206.13
2023-05-09T19:15:16.986Z,100245.00
2023-05-09T19:20:09.999Z,100235.50
2023-05-09T19:25:01.998Z,100179.63
2023-05-09T19:29:54.673Z,100242.53
2023-05-09T19:34:48.145Z,100232.28
2023-05-09T19:39:40.372Z,100262.88
2023-05-09T19:44:32.977Z,100176.34
2023-05-09T19:49:24.989Z,100236.03
2023-05-09T19:54:17.393Z,100270.03
2023-05-09T19:59:10.483Z,100253.28
2023-05-09T20:04:04.115Z,100274.41
2023-05-09T20:08:57.608Z,100176.66
2023-05-09T20:13:51.786Z,100251.59
2023-05-09T20:18:44.277Z,100172.75
2023-05-09T20:23:36.929Z,100268.88
2023-05-09T20:28:28.918Z,100269.09
2023-05-09T20:33:24.394Z,100208.34
2023-05-09T20:38:16.292Z,100172.13
2023-05-09T20:43:08.062Z,100192.25
2023-05-09T20:48:01.904Z,100268.63
2023-05-09T20:52:55.308Z,100251.94
2023-05-09T20:57:47.811Z,100268.31
2023-05-09T21:02:40.730Z,100251.22
2023-05-09T21:07:34.488Z,100250.91
2023-05-09T21:12:26.319Z,100276.13
2023-05-09T21:17:19.375Z,100241.75
2023-05-09T21:22:13.598Z,100247.50
2023-05-09T21:27:06.282Z,100165.66
2023-05-09T21:32:00.392Z,100263.78
2023-05-09T21:36:54.887Z,100271.22
2023-05-09T21:41:46.926Z,100219.94
2023-05-09T21:46:39.180Z,100209.38
2023-05-09T21:51:31.921Z,100151.84
2023-05-09T21:56:23.911Z,100186.09
2023-05-09T22:01:17.391Z,100256.84
2023-05-09T22:06:09.264Z,100190.66
2023-05-09T22:11:01.121Z,100183.22
2023-05-09T22:15:53.516Z,100086.94
2023-05-09T22:20:45.456Z,100267.53
2023-05-09T22:25:38.412Z,100232.16
2023-05-09T22:30:31.547Z,100267.53
2023-05-09T22:35:23.443Z,100267.94
2023-05-09T22:40:16.661Z,100254.75
2023-05-09T22:45:09.515Z,100199.44
2023-05-09T22:50:03.527Z,100278.34
2023-05-09T22:54:56.499Z,100168.22
2023-05-09T22:59:49.456Z,100269.88
2023-05-09T23:04:41.626Z,100157.53
2023-05-09T23:09:35.036Z,100268.13
2023-05-09T23:14:27.268Z,100234.53
2023-05-09T23:19:20.089Z,100273.19
2023-05-09T23:24:12.951Z,100266.44
2023-05-09T23:29:06.228Z,100277.53
2023-05-09T23:33:58.109Z,100231.22
2023-05-09T23:38:50.066Z,100271.41
2023-05-09T23:43:42.900Z,100254.38
2023-05-09T23:48:34.997Z,100270.59
2023-05-09T23:53:27.094Z,100266.44
2023-05-09T23:58:19.084Z,100251.09
